sensor_id;sensor_type;location;lat;lon;timestamp;temperature;humidity
25108;DHT22;13090;53.422;7.670;2023-05-07T00:00:20;12.70;91.70
25108;DHT22;13090;53.422;7.670;2023-05-07T00:05:23;12.60;91.70
25108;DHT22;13090;53.422;7.670;2023-05-07T00:10:26;12.60;91.70
25108;DHT22;13090;53.422;7.670;2023-05-07T00:15:29;12.70;91.60
25108;DHT22;13090;53.422;7.670;2023-05-07T00:20:31;12.60;91.60
25108;DHT22;13090;53.422;7.670;2023-05-07T00:25:38;12.60;91.60
25108;DHT22;13090;53.422;7.670;2023-05-07T00:30:40;12.70;91.60
25108;DHT22;13090;53.422;7.670;2023-05-07T00:35:43;12.60;91.60
25108;DHT22;13090;53.422;7.670;2023-05-07T00:40:47;12.60;91.60
25108;DHT22;13090;53.422;7.670;2023-05-07T00:45:49;12.60;91.60
25108;DHT22;13090;53.422;7.670;2023-05-07T00:50:52;12.60;91.70
25108;DHT22;13090;53.422;7.670;2023-05-07T00:55:55;12.60;91.70
25108;DHT22;13090;53.422;7.670;2023-05-07T01:00:58;12.60;91.70
25108;DHT22;13090;53.422;7.670;2023-05-07T01:06:01;12.50;91.80
25108;DHT22;13090;53.422;7.670;2023-05-07T01:11:06;12.50;91.70
25108;DHT22;13090;53.422;7.670;2023-05-07T01:16:09;12.50;91.70
25108;DHT22;13090;53.422;7.670;2023-05-07T01:21:12;12.50;91.90
25108;DHT22;13090;53.422;7.670;2023-05-07T01:26:16;12.40;92.00
25108;DHT22;13090;53.422;7.670;2023-05-07T01:31:18;12.50;91.90
25108;DHT22;13090;53.422;7.670;2023-05-07T01:36:22;12.40;91.90
25108;DHT22;13090;53.422;7.670;2023-05-07T01:41:26;12.40;92.00
25108;DHT22;13090;53.422;7.670;2023-05-07T01:46:29;12.40;91.90
25108;DHT22;13090;53.422;7.670;2023-05-07T01:51:32;12.40;91.90
25108;DHT22;13090;53.422;7.670;2023-05-07T01:56:36;12.40;92.00
25108;DHT22;13090;53.422;7.670;2023-05-07T02:01:38;12.30;91.90
25108;DHT22;13090;53.422;7.670;2023-05-07T02:06:40;12.30;91.90
25108;DHT22;13090;53.422;7.670;2023-05-07T02:11:44;12.30;91.80
25108;DHT22;13090;53.422;7.670;2023-05-07T02:16:46;12.20;91.80
25108;DHT22;13090;53.422;7.670;2023-05-07T02:21:48;12.20;91.90
25108;DHT22;13090;53.422;7.670;2023-05-07T02:26:52;12.20;92.00
25108;DHT22;13090;53.422;7.670;2023-05-07T02:31:54;12.10;91.90
25108;DHT22;13090;53.422;7.670;2023-05-07T02:36:56;12.10;92.00
25108;DHT22;13090;53.422;7.670;2023-05-07T02:42:00;12.10;92.00
25108;DHT22;13090;53.422;7.670;2023-05-07T02:47:02;12.10;92.00
25108;DHT22;13090;53.422;7.670;2023-05-07T02:52:05;12.10;92.00
25108;DHT22;13090;53.422;7.670;2023-05-07T02:57:08;12.10;92.00
25108;DHT22;13090;53.422;7.670;2023-05-07T03:02:10;12.10;91.80
25108;DHT22;13090;53.422;7.670;2023-05-07T03:07:12;12.10;91.90
25108;DHT22;13090;53.422;7.670;2023-05-07T03:12:16;12.10;91.90
25108;DHT22;13090;53.422;7.670;2023-05-07T03:17:18;12.10;91.90
25108;DHT22;13090;53.422;7.670;2023-05-07T03:22:20;12.10;91.80
25108;DHT22;13090;53.422;7.670;2023-05-07T03:27:24;12.10;91.70
25108;DHT22;13090;53.422;7.670;2023-05-07T03:32:26;12.10;91.70
25108;DHT22;13090;53.422;7.670;2023-05-07T03:37:28;12.10;91.70
25108;DHT22;13090;53.422;7.670;2023-05-07T03:42:32;12.10;91.90
25108;DHT22;13090;53.422;7.670;2023-05-07T03:47:34;12.00;91.90
25108;DHT22;13090;53.422;7.670;2023-05-07T03:52:36;11.90;92.10
25108;DHT22;13090;53.422;7.670;2023-05-07T03:57:40;11.90;92.10
25108;DHT22;13090;53.422;7.670;2023-05-07T04:02:42;11.80;92.10
25108;DHT22;13090;53.422;7.670;2023-05-07T04:07:45;11.80;92.10
25108;DHT22;13090;53.422;7.670;2023-05-07T04:12:48;11.70;92.20
25108;DHT22;13090;53.422;7.670;2023-05-07T04:17:50;11.60;92.30
25108;DHT22;13090;53.422;7.670;2023-05-07T04:22:53;11.60;92.40
25108;DHT22;13090;53.422;7.670;2023-05-07T04:27:57;11.50;92.50
25108;DHT22;13090;53.422;7.670;2023-05-07T04:32:59;11.50;92.40
25108;DHT22;13090;53.422;7.670;2023-05-07T04:38:01;11.50;92.50
25108;DHT22;13090;53.422;7.670;2023-05-07T04:43:05;11.50;92.40
25108;DHT22;13090;53.422;7.670;2023-05-07T04:48:09;11.30;92.60
25108;DHT22;13090;53.422;7.670;2023-05-07T04:53:12;11.30;92.50
25108;DHT22;13090;53.422;7.670;2023-05-07T04:58:15;11.30;92.60
25108;DHT22;13090;53.422;7.670;2023-05-07T05:03:17;11.30;92.60
25108;DHT22;13090;53.422;7.670;2023-05-07T05:08:20;11.40;92.40
25108;DHT22;13090;53.422;7.670;2023-05-07T05:13:23;11.30;92.40
25108;DHT22;13090;53.422;7.670;2023-05-07T05:18:25;11.30;92.50
25108;DHT22;13090;53.422;7.670;2023-05-07T05:23:28;11.30;92.50
25108;DHT22;13090;53.422;7.670;2023-05-07T05:28:31;11.20;92.50
25108;DHT22;13090;53.422;7.670;2023-05-07T05:33:34;11.20;92.40
25108;DHT22;13090;53.422;7.670;2023-05-07T05:38:36;11.20;92.60
25108;DHT22;13090;53.422;7.670;2023-05-07T05:43:40;11.20;92.50
25108;DHT22;13090;53.422;7.670;2023-05-07T05:48:42;11.10;92.60
25108;DHT22;13090;53.422;7.670;2023-05-07T05:53:44;11.20;92.60
25108;DHT22;13090;53.422;7.670;2023-05-07T05:58:48;11.30;92.50
25108;DHT22;13090;53.422;7.670;2023-05-07T06:03:50;11.40;92.40
25108;DHT22;13090;53.422;7.670;2023-05-07T06:08:52;11.30;92.50
25108;DHT22;13090;53.422;7.670;2023-05-07T06:13:56;11.30;92.50
25108;DHT22;13090;53.422;7.670;2023-05-07T06:18:58;11.20;92.70
25108;DHT22;13090;53.422;7.670;2023-05-07T06:24:00;11.30;92.80
25108;DHT22;13090;53.422;7.670;2023-05-07T06:29:04;11.30;92.70
25108;DHT22;13090;53.422;7.670;2023-05-07T06:34:06;11.20;92.80
25108;DHT22;13090;53.422;7.670;2023-05-07T06:39:09;11.30;92.90
25108;DHT22;13090;53.422;7.670;2023-05-07T06:44:12;11.30;92.90
25108;DHT22;13090;53.422;7.670;2023-05-07T06:49:15;11.30;92.80
25108;DHT22;13090;53.422;7.670;2023-05-07T06:54:17;11.30;92.90
25108;DHT22;13090;53.422;7.670;2023-05-07T06:59:20;11.30;92.90
25108;DHT22;13090;53.422;7.670;2023-05-07T07:04:22;11.30;93.00
25108;DHT22;13090;53.422;7.670;2023-05-07T07:09:25;11.30;93.00
25108;DHT22;13090;53.422;7.670;2023-05-07T07:14:28;11.30;93.30
25108;DHT22;13090;53.422;7.670;2023-05-07T07:19:31;11.30;93.30
25108;DHT22;13090;53.422;7.670;2023-05-07T07:24:33;11.40;93.20
25108;DHT22;13090;53.422;7.670;2023-05-07T07:29:36;11.40;93.20
25108;DHT22;13090;53.422;7.670;2023-05-07T07:34:39;11.40;93.30
25108;DHT22;13090;53.422;7.670;2023-05-07T07:39:41;11.40;93.30
25108;DHT22;13090;53.422;7.670;2023-05-07T07:44:46;11.40;93.30
25108;DHT22;13090;53.422;7.670;2023-05-07T07:49:48;11.30;93.40
25108;DHT22;13090;53.422;7.670;2023-05-07T07:54:50;11.40;93.50
25108;DHT22;13090;53.422;7.670;2023-05-07T07:59:54;11.40;93.50
25108;DHT22;13090;53.422;7.670;2023-05-07T08:04:56;11.30;93.50
25108;DHT22;13090;53.422;7.670;2023-05-07T08:09:58;11.40;93.60
25108;DHT22;13090;53.422;7.670;2023-05-07T08:15:02;11.40;93.70
25108;DHT22;13090;53.422;7.670;2023-05-07T08:20:06;11.50;93.80
25108;DHT22;13090;53.422;7.670;2023-05-07T08:25:09;11.60;93.50
25108;DHT22;13090;53.422;7.670;2023-05-07T08:30:25;11.60;93.30
25108;DHT22;13090;53.422;7.670;2023-05-07T08:35:48;11.60;93.00
25108;DHT22;13090;53.422;7.670;2023-05-07T08:41:04;11.60;92.80
25108;DHT22;13090;53.422;7.670;2023-05-07T08:46:20;11.60;93.00
25108;DHT22;13090;53.422;7.670;2023-05-07T08:51:31;11.60;92.70
25108;DHT22;13090;53.422;7.670;2023-05-07T08:56:33;11.60;93.20
25108;DHT22;13090;53.422;7.670;2023-05-07T09:01:37;11.80;93.10
25108;DHT22;13090;53.422;7.670;2023-05-07T09:06:39;11.90;92.90
25108;DHT22;13090;53.422;7.670;2023-05-07T09:11:42;12.00;92.80
25108;DHT22;13090;53.422;7.670;2023-05-07T09:16:46;12.00;92.60
25108;DHT22;13090;53.422;7.670;2023-05-07T09:21:49;12.00;92.50
25108;DHT22;13090;53.422;7.670;2023-05-07T09:26:51;12.10;92.20
25108;DHT22;13090;53.422;7.670;2023-05-07T09:31:55;12.20;92.30
25108;DHT22;13090;53.422;7.670;2023-05-07T09:36:58;12.30;92.00
25108;DHT22;13090;53.422;7.670;2023-05-07T09:42:01;12.40;92.00
25108;DHT22;13090;53.422;7.670;2023-05-07T09:47:05;12.50;91.80
25108;DHT22;13090;53.422;7.670;2023-05-07T09:52:09;12.50;91.40
25108;DHT22;13090;53.422;7.670;2023-05-07T09:57:15;12.60;91.20
25108;DHT22;13090;53.422;7.670;2023-05-07T10:02:25;12.70;91.40
25108;DHT22;13090;53.422;7.670;2023-05-07T10:07:31;12.80;91.40
25108;DHT22;13090;53.422;7.670;2023-05-07T10:12:33;13.00;91.20
25108;DHT22;13090;53.422;7.670;2023-05-07T10:17:38;13.10;90.30
25108;DHT22;13090;53.422;7.670;2023-05-07T10:22:43;13.20;90.20
25108;DHT22;13090;53.422;7.670;2023-05-07T10:27:47;13.40;90.60
25108;DHT22;13090;53.422;7.670;2023-05-07T10:32:55;13.60;90.60
25108;DHT22;13090;53.422;7.670;2023-05-07T10:37:58;13.90;90.00
25108;DHT22;13090;53.422;7.670;2023-05-07T10:43:01;14.20;90.10
25108;DHT22;13090;53.422;7.670;2023-05-07T10:48:10;14.40;87.10
25108;DHT22;13090;53.422;7.670;2023-05-07T10:53:29;14.70;86.50
25108;DHT22;13090;53.422;7.670;2023-05-07T10:58:31;15.00;86.20
25108;DHT22;13090;53.422;7.670;2023-05-07T11:03:35;15.30;83.30
25108;DHT22;13090;53.422;7.670;2023-05-07T11:08:53;15.50;84.00
25108;DHT22;13090;53.422;7.670;2023-05-07T11:13:55;15.70;83.40
25108;DHT22;13090;53.422;7.670;2023-05-07T11:18:59;16.10;84.40
25108;DHT22;13090;53.422;7.670;2023-05-07T11:24:02;16.30;83.30
25108;DHT22;13090;53.422;7.670;2023-05-07T11:29:11;16.60;84.00
25108;DHT22;13090;53.422;7.670;2023-05-07T11:34:15;16.80;80.10
25108;DHT22;13090;53.422;7.670;2023-05-07T11:39:29;16.90;80.30
25108;DHT22;13090;53.422;7.670;2023-05-07T11:44:42;17.10;77.00
25108;DHT22;13090;53.422;7.670;2023-05-07T11:49:47;17.00;77.70
25108;DHT22;13090;53.422;7.670;2023-05-07T11:54:49;17.10;79.60
25108;DHT22;13090;53.422;7.670;2023-05-07T11:59:53;17.30;81.00
25108;DHT22;13090;53.422;7.670;2023-05-07T12:04:57;17.60;78.50
25108;DHT22;13090;53.422;7.670;2023-05-07T12:10:04;17.70;78.40
25108;DHT22;13090;53.422;7.670;2023-05-07T12:15:08;17.60;76.30
25108;DHT22;13090;53.422;7.670;2023-05-07T12:20:12;17.50;78.00
25108;DHT22;13090;53.422;7.670;2023-05-07T12:25:19;17.80;78.50
25108;DHT22;13090;53.422;7.670;2023-05-07T12:30:21;17.90;77.00
25108;DHT22;13090;53.422;7.670;2023-05-07T12:35:29;18.00;76.50
25108;DHT22;13090;53.422;7.670;2023-05-07T12:40:38;18.10;74.80
25108;DHT22;13090;53.422;7.670;2023-05-07T12:45:42;18.10;76.00
25108;DHT22;13090;53.422;7.670;2023-05-07T12:50:49;17.90;76.70
25108;DHT22;13090;53.422;7.670;2023-05-07T12:55:52;17.90;76.10
25108;DHT22;13090;53.422;7.670;2023-05-07T13:00:56;18.00;76.80
25108;DHT22;13090;53.422;7.670;2023-05-07T13:06:02;18.00;77.30
25108;DHT22;13090;53.422;7.670;2023-05-07T13:11:06;18.20;76.70
25108;DHT22;13090;53.422;7.670;2023-05-07T13:16:10;18.20;75.40
25108;DHT22;13090;53.422;7.670;2023-05-07T13:21:15;18.10;76.90
25108;DHT22;13090;53.422;7.670;2023-05-07T13:26:17;18.00;76.80
25108;DHT22;13090;53.422;7.670;2023-05-07T13:31:28;18.10;76.80
25108;DHT22;13090;53.422;7.670;2023-05-07T13:36:31;18.10;75.30
25108;DHT22;13090;53.422;7.670;2023-05-07T13:41:34;18.10;75.70
25108;DHT22;13090;53.422;7.670;2023-05-07T13:46:36;17.90;75.50
25108;DHT22;13090;53.422;7.670;2023-05-07T13:51:40;17.80;76.50
25108;DHT22;13090;53.422;7.670;2023-05-07T13:56:42;17.90;77.90
25108;DHT22;13090;53.422;7.670;2023-05-07T14:01:44;18.10;76.80
25108;DHT22;13090;53.422;7.670;2023-05-07T14:06:48;18.30;76.10
25108;DHT22;13090;53.422;7.670;2023-05-07T14:11:50;18.30;74.10
25108;DHT22;13090;53.422;7.670;2023-05-07T14:16:52;18.10;76.10
25108;DHT22;13090;53.422;7.670;2023-05-07T14:21:55;18.10;75.00
25108;DHT22;13090;53.422;7.670;2023-05-07T14:27:00;18.00;74.80
25108;DHT22;13090;53.422;7.670;2023-05-07T14:32:02;17.90;76.40
25108;DHT22;13090;53.422;7.670;2023-05-07T14:37:06;17.90;76.20
25108;DHT22;13090;53.422;7.670;2023-05-07T14:42:08;18.00;76.80
25108;DHT22;13090;53.422;7.670;2023-05-07T14:47:12;18.00;76.50
25108;DHT22;13090;53.422;7.670;2023-05-07T14:52:22;18.00;75.90
25108;DHT22;13090;53.422;7.670;2023-05-07T14:57:27;18.10;76.30
25108;DHT22;13090;53.422;7.670;2023-05-07T15:02:38;18.20;75.20
25108;DHT22;13090;53.422;7.670;2023-05-07T15:07:45;18.10;75.10
25108;DHT22;13090;53.422;7.670;2023-05-07T15:12:48;18.20;74.90
25108;DHT22;13090;53.422;7.670;2023-05-07T15:17:50;18.20;74.10
25108;DHT22;13090;53.422;7.670;2023-05-07T15:22:54;18.10;75.60
25108;DHT22;13090;53.422;7.670;2023-05-07T15:27:57;18.20;75.10
25108;DHT22;13090;53.422;7.670;2023-05-07T15:33:01;18.20;74.20
25108;DHT22;13090;53.422;7.670;2023-05-07T15:38:06;18.30;75.30
25108;DHT22;13090;53.422;7.670;2023-05-07T15:43:09;18.30;74.40
25108;DHT22;13090;53.422;7.670;2023-05-07T15:48:11;18.30;74.30
25108;DHT22;13090;53.422;7.670;2023-05-07T15:53:15;18.40;73.70
25108;DHT22;13090;53.422;7.670;2023-05-07T15:58:17;18.30;73.40
25108;DHT22;13090;53.422;7.670;2023-05-07T16:03:19;18.30;74.50
25108;DHT22;13090;53.422;7.670;2023-05-07T16:08:23;18.40;73.80
25108;DHT22;13090;53.422;7.670;2023-05-07T16:13:26;18.50;73.90
25108;DHT22;13090;53.422;7.670;2023-05-07T16:18:33;18.40;73.40
25108;DHT22;13090;53.422;7.670;2023-05-07T16:23:45;18.30;72.90
25108;DHT22;13090;53.422;7.670;2023-05-07T16:28:47;18.30;73.00
25108;DHT22;13090;53.422;7.670;2023-05-07T16:33:50;18.40;72.90
25108;DHT22;13090;53.422;7.670;2023-05-07T16:38:53;18.40;73.10
25108;DHT22;13090;53.422;7.670;2023-05-07T16:43:56;18.50;73.20
25108;DHT22;13090;53.422;7.670;2023-05-07T16:48:58;18.50;73.20
25108;DHT22;13090;53.422;7.670;2023-05-07T16:54:01;18.50;72.50
25108;DHT22;13090;53.422;7.670;2023-05-07T16:59:05;18.50;72.50
25108;DHT22;13090;53.422;7.670;2023-05-07T17:04:08;18.40;71.70
25108;DHT22;13090;53.422;7.670;2023-05-07T17:09:11;18.30;72.00
25108;DHT22;13090;53.422;7.670;2023-05-07T17:14:13;18.20;72.30
25108;DHT22;13090;53.422;7.670;2023-05-07T17:19:16;18.10;72.60
25108;DHT22;13090;53.422;7.670;2023-05-07T17:24:19;18.00;73.50
25108;DHT22;13090;53.422;7.670;2023-05-07T17:29:21;17.90;74.00
25108;DHT22;13090;53.422;7.670;2023-05-07T17:34:24;17.90;73.20
25108;DHT22;13090;53.422;7.670;2023-05-07T17:39:29;17.80;73.20
25108;DHT22;13090;53.422;7.670;2023-05-07T17:44:32;17.70;72.70
25108;DHT22;13090;53.422;7.670;2023-05-07T17:49:34;17.50;73.00
25108;DHT22;13090;53.422;7.670;2023-05-07T17:54:37;17.50;73.60
25108;DHT22;13090;53.422;7.670;2023-05-07T17:59:40;17.40;73.80
25108;DHT22;13090;53.422;7.670;2023-05-07T18:04:43;17.40;74.30
25108;DHT22;13090;53.422;7.670;2023-05-07T18:09:47;17.30;73.50
25108;DHT22;13090;53.422;7.670;2023-05-07T18:14:49;17.20;73.90
25108;DHT22;13090;53.422;7.670;2023-05-07T18:19:51;17.10;73.20
25108;DHT22;13090;53.422;7.670;2023-05-07T18:24:57;17.10;73.90
25108;DHT22;13090;53.422;7.670;2023-05-07T18:29:59;17.00;73.90
25108;DHT22;13090;53.422;7.670;2023-05-07T18:35:02;17.00;74.30
25108;DHT22;13090;53.422;7.670;2023-05-07T18:40:08;16.90;74.60
25108;DHT22;13090;53.422;7.670;2023-05-07T18:45:12;16.90;74.40
25108;DHT22;13090;53.422;7.670;2023-05-07T18:50:14;16.80;74.20
25108;DHT22;13090;53.422;7.670;2023-05-07T18:55:18;16.80;74.60
25108;DHT22;13090;53.422;7.670;2023-05-07T19:00:20;16.70;74.80
25108;DHT22;13090;53.422;7.670;2023-05-07T19:05:22;16.70;74.70
25108;DHT22;13090;53.422;7.670;2023-05-07T19:10:26;16.60;74.60
25108;DHT22;13090;53.422;7.670;2023-05-07T19:15:28;16.50;74.80
25108;DHT22;13090;53.422;7.670;2023-05-07T19:20:30;16.50;75.00
25108;DHT22;13090;53.422;7.670;2023-05-07T19:25:34;16.40;75.50
25108;DHT22;13090;53.422;7.670;2023-05-07T19:30:37;16.30;75.50
25108;DHT22;13090;53.422;7.670;2023-05-07T19:35:40;16.30;75.80
25108;DHT22;13090;53.422;7.670;2023-05-07T19:40:43;16.30;76.00
25108;DHT22;13090;53.422;7.670;2023-05-07T19:45:45;16.20;75.90
25108;DHT22;13090;53.422;7.670;2023-05-07T19:50:48;16.20;76.10
25108;DHT22;13090;53.422;7.670;2023-05-07T19:56:01;16.10;76.00
25108;DHT22;13090;53.422;7.670;2023-05-07T20:01:04;16.00;76.00
25108;DHT22;13090;53.422;7.670;2023-05-07T20:06:06;15.90;75.90
25108;DHT22;13090;53.422;7.670;2023-05-07T20:11:10;15.90;76.20
25108;DHT22;13090;53.422;7.670;2023-05-07T20:16:12;15.80;76.20
25108;DHT22;13090;53.422;7.670;2023-05-07T20:21:14;15.70;76.40
25108;DHT22;13090;53.422;7.670;2023-05-07T20:26:19;15.60;76.50
25108;DHT22;13090;53.422;7.670;2023-05-07T20:31:22;15.50;76.60
25108;DHT22;13090;53.422;7.670;2023-05-07T20:36:24;15.40;76.70
25108;DHT22;13090;53.422;7.670;2023-05-07T20:41:31;15.30;77.00
25108;DHT22;13090;53.422;7.670;2023-05-07T20:46:34;15.20;77.30
25108;DHT22;13090;53.422;7.670;2023-05-07T20:51:36;15.00;77.60
25108;DHT22;13090;53.422;7.670;2023-05-07T20:56:40;15.00;77.80
25108;DHT22;13090;53.422;7.670;2023-05-07T21:01:42;14.90;78.10
25108;DHT22;13090;53.422;7.670;2023-05-07T21:06:44;14.80;78.30
25108;DHT22;13090;53.422;7.670;2023-05-07T21:11:48;14.70;78.60
25108;DHT22;13090;53.422;7.670;2023-05-07T21:16:50;14.60;78.80
25108;DHT22;13090;53.422;7.670;2023-05-07T21:21:52;14.60;79.00
25108;DHT22;13090;53.422;7.670;2023-05-07T21:26:56;14.50;79.60
25108;DHT22;13090;53.422;7.670;2023-05-07T21:31:58;14.40;79.70
25108;DHT22;13090;53.422;7.670;2023-05-07T21:37:00;14.30;79.80
25108;DHT22;13090;53.422;7.670;2023-05-07T21:42:04;14.20;80.30
25108;DHT22;13090;53.422;7.670;2023-05-07T21:47:06;14.20;80.20
25108;DHT22;13090;53.422;7.670;2023-05-07T21:52:10;14.20;80.20
25108;DHT22;13090;53.422;7.670;2023-05-07T21:57:14;14.20;80.30
25108;DHT22;13090;53.422;7.670;2023-05-07T22:02:16;14.10;80.20
25108;DHT22;13090;53.422;7.670;2023-05-07T22:07:19;14.10;80.10
25108;DHT22;13090;53.422;7.670;2023-05-07T22:12:22;14.10;80.00
25108;DHT22;13090;53.422;7.670;2023-05-07T22:17:24;14.00;80.00
25108;DHT22;13090;53.422;7.670;2023-05-07T22:22:27;14.00;79.90
25108;DHT22;13090;53.422;7.670;2023-05-07T22:27:33;14.00;80.00
25108;DHT22;13090;53.422;7.670;2023-05-07T22:32:35;14.00;79.80
25108;DHT22;13090;53.422;7.670;2023-05-07T22:37:38;14.00;79.80
25108;DHT22;13090;53.422;7.670;2023-05-07T22:42:41;14.00;79.80
25108;DHT22;13090;53.422;7.670;2023-05-07T22:47:44;14.00;79.70
25108;DHT22;13090;53.422;7.670;2023-05-07T22:52:46;13.90;79.60
25108;DHT22;13090;53.422;7.670;2023-05-07T22:57:51;13.90;79.40
25108;DHT22;13090;53.422;7.670;2023-05-07T23:02:53;13.90;79.30
25108;DHT22;13090;53.422;7.670;2023-05-07T23:07:55;13.80;79.20
25108;DHT22;13090;53.422;7.670;2023-05-07T23:12:59;13.80;79.40
25108;DHT22;13090;53.422;7.670;2023-05-07T23:18:02;13.70;79.20
25108;DHT22;13090;53.422;7.670;2023-05-07T23:23:04;13.70;79.30
25108;DHT22;13090;53.422;7.670;2023-05-07T23:28:09;13.70;79.40
25108;DHT22;13090;53.422;7.670;2023-05-07T23:33:11;13.60;79.40
25108;DHT22;13090;53.422;7.670;2023-05-07T23:43:25;13.60;79.40
25108;DHT22;13090;53.422;7.670;2023-05-07T23:48:27;13.60;79.30
25108;DHT22;13090;53.422;7.670;2023-05-07T23:53:29;13.60;79.50
25108;DHT22;13090;53.422;7.670;2023-05-07T23:58:33;13.50;79.50
